createdAt,value
2018-02-21T00:02:00.940Z,-4.80
2018-02-21T00:04:28.667Z,-4.90
2018-02-21T00:06:56.370Z,-4.90
2018-02-21T00:09:24.031Z,-5.00
2018-02-21T00:11:52.454Z,-5.10
2018-02-21T00:14:20.139Z,-5.20
2018-02-21T00:16:47.816Z,-5.20
2018-02-21T00:19:17.306Z,-5.30
2018-02-21T00:21:44.919Z,-5.40
2018-02-21T00:24:12.552Z,-5.40
2018-02-21T00:26:40.925Z,-5.40
2018-02-21T00:29:08.616Z,-5.40
2018-02-21T00:31:36.302Z,-5.40
2018-02-21T00:34:05.001Z,-5.30
2018-02-21T00:36:32.612Z,-5.30
2018-02-21T00:39:01.048Z,-5.40
2018-02-21T00:41:28.695Z,-5.50
2018-02-21T00:43:56.329Z,-5.50
2018-02-21T00:46:23.935Z,-5.70
2018-02-21T00:48:51.583Z,-5.90
2018-02-21T00:51:19.204Z,-6.00
2018-02-21T00:53:46.881Z,-6.10
2018-02-21T00:56:15.294Z,-6.20
2018-02-21T00:58:42.951Z,-6.40
2018-02-21T01:01:10.563Z,-6.50
2018-02-21T01:03:38.224Z,-6.50
2018-02-21T01:06:06.655Z,-6.70
2018-02-21T01:08:34.259Z,-6.70
2018-02-21T01:11:02.729Z,-6.80
2018-02-21T01:13:31.127Z,-6.80
2018-02-21T01:15:59.530Z,-6.80
2018-02-21T01:18:27.181Z,-6.80
2018-02-21T01:20:54.870Z,-6.80
2018-02-21T01:23:22.497Z,-6.80
2018-02-21T01:25:50.102Z,-6.90
2018-02-21T01:28:17.739Z,-6.90
2018-02-21T01:30:45.337Z,-6.90
2018-02-21T01:33:12.969Z,-6.90
2018-02-21T01:35:41.551Z,-7.00
2018-02-21T01:38:09.173Z,-7.00
2018-02-21T01:40:36.810Z,-7.00
2018-02-21T01:43:05.175Z,-7.10
2018-02-21T01:45:32.807Z,-7.10
2018-02-21T01:48:00.432Z,-7.10
2018-02-21T01:50:39.927Z,-7.10
2018-02-21T01:53:07.580Z,-7.10
2018-02-21T01:55:35.175Z,-7.10
2018-02-21T01:58:03.534Z,-7.20
2018-02-21T02:00:31.191Z,-7.20
2018-02-21T02:02:58.863Z,-7.20
2018-02-21T02:05:27.233Z,-7.20
2018-02-21T02:07:54.872Z,-7.30
2018-02-21T02:10:22.468Z,-7.30
2018-02-21T02:12:50.898Z,-7.40
2018-02-21T02:15:18.500Z,-7.40
2018-02-21T02:17:46.159Z,-7.50
2018-02-21T02:20:13.812Z,-7.50
2018-02-21T02:22:42.214Z,-7.40
2018-02-21T02:25:09.829Z,-7.40
2018-02-21T02:27:37.491Z,-7.40
2018-02-21T02:30:05.123Z,-7.40
2018-02-21T02:32:32.836Z,-7.40
2018-02-21T02:35:01.192Z,-7.50
2018-02-21T02:37:28.824Z,-7.50
2018-02-21T02:40:01.294Z,-7.60
2018-02-21T02:42:28.925Z,-7.60
2018-02-21T02:44:56.523Z,-7.70
2018-02-21T02:47:24.158Z,-7.70
2018-02-21T02:49:51.808Z,-7.70
2018-02-21T02:52:19.412Z,-7.70
2018-02-21T02:54:47.043Z,-7.70
2018-02-21T02:57:14.669Z,-7.70
2018-02-21T02:59:42.344Z,-7.70
2018-02-21T03:02:10.723Z,-7.70
2018-02-21T03:04:39.164Z,-7.70
2018-02-21T03:07:06.765Z,-7.70
2018-02-21T03:09:35.130Z,-7.60
2018-02-21T03:12:02.788Z,-7.60
2018-02-21T03:14:30.395Z,-7.50
2018-02-21T03:16:58.064Z,-7.40
2018-02-21T03:19:25.728Z,-7.30
2018-02-21T03:21:53.347Z,-7.20
2018-02-21T03:24:21.733Z,-7.10
2018-02-21T03:26:49.369Z,-7.10
2018-02-21T03:29:16.989Z,-7.10
2018-02-21T03:31:44.648Z,-7.10
2018-02-21T03:34:12.248Z,-7.10
2018-02-21T03:36:39.842Z,-7.00
2018-02-21T03:39:07.440Z,-7.00
2018-02-21T03:41:35.988Z,-6.90
2018-02-21T03:44:03.667Z,-6.90
2018-02-21T03:46:31.339Z,-6.90
2018-02-21T03:48:58.997Z,-6.80
2018-02-21T03:51:26.652Z,-6.80
2018-02-21T03:53:54.245Z,-6.70
2018-02-21T03:56:21.910Z,-6.70
2018-02-21T03:58:49.550Z,-6.70
2018-02-21T04:01:18.056Z,-6.70
2018-02-21T04:03:46.486Z,-6.70
2018-02-21T04:06:14.090Z,-6.70
2018-02-21T04:08:42.573Z,-6.70
2018-02-21T04:11:10.213Z,-6.80
2018-02-21T04:13:37.874Z,-6.80
2018-02-21T04:16:05.487Z,-6.80
2018-02-21T04:18:33.142Z,-6.90
2018-02-21T04:21:00.786Z,-7.00
2018-02-21T04:23:29.200Z,-7.10
2018-02-21T04:25:56.778Z,-6.50
2018-02-21T04:28:24.448Z,-7.20
2018-02-21T04:30:52.088Z,-7.20
2018-02-21T04:33:19.740Z,-7.20
2018-02-21T04:35:47.343Z,-7.20
2018-02-21T04:38:14.951Z,-7.20
2018-02-21T04:40:42.597Z,-7.10
2018-02-21T04:43:10.249Z,-7.00
2018-02-21T04:45:38.644Z,-7.10
2018-02-21T04:48:06.279Z,-7.10
2018-02-21T04:50:33.882Z,-7.10
2018-02-21T04:53:01.541Z,-7.10
2018-02-21T05:09:10.117Z,-7.60
2018-02-21T05:11:38.399Z,-7.60
2018-02-21T05:14:07.183Z,-7.70
2018-02-21T05:16:35.930Z,-7.80
2018-02-21T05:19:04.616Z,-7.80
2018-02-21T05:21:33.388Z,-7.80
2018-02-21T05:24:01.346Z,-7.80
2018-02-21T05:26:29.280Z,-7.90
2018-02-21T05:28:57.291Z,-7.80
2018-02-21T05:31:26.259Z,-7.80
2018-02-21T05:33:56.045Z,-7.80
2018-02-21T05:36:24.021Z,-7.80
2018-02-21T05:38:52.172Z,-7.80
2018-02-21T05:41:20.123Z,-7.80
2018-02-21T05:43:48.022Z,-7.80
2018-02-21T05:46:16.735Z,-7.90
2018-02-21T05:48:45.514Z,-8.00
2018-02-21T05:51:13.394Z,-8.00
2018-02-21T05:53:41.451Z,-8.00
2018-02-21T05:56:10.309Z,-8.10
2018-02-21T05:58:38.491Z,-8.10
2018-02-21T06:01:06.630Z,-8.20
2018-02-21T06:03:34.536Z,-8.20
2018-02-21T06:06:02.368Z,-8.20
2018-02-21T06:08:30.834Z,-8.30
2018-02-21T06:10:58.595Z,-8.30
2018-02-21T06:13:26.423Z,-8.30
2018-02-21T06:15:54.197Z,-8.30
2018-02-21T06:18:21.961Z,-8.30
2018-02-21T06:20:49.696Z,-8.30
2018-02-21T06:23:17.477Z,-8.30
2018-02-21T06:25:45.237Z,-8.30
2018-02-21T06:28:13.101Z,-8.30
2018-02-21T06:30:40.781Z,-8.30
2018-02-21T06:33:08.501Z,-8.40
2018-02-21T06:35:36.227Z,-8.30
2018-02-21T06:38:03.954Z,-8.30
2018-02-21T06:40:31.713Z,-8.30
2018-02-21T06:42:59.479Z,-8.10
2018-02-21T06:45:27.332Z,-8.00
2018-02-21T06:47:55.124Z,-7.80
2018-02-21T06:50:22.883Z,-7.60
2018-02-21T06:52:50.644Z,-7.40
2018-02-21T06:55:18.413Z,-7.30
2018-02-21T06:57:46.285Z,-7.30
2018-02-21T07:00:14.084Z,-7.20
2018-02-21T07:02:42.633Z,-7.10
2018-02-21T07:05:10.490Z,-7.10
2018-02-21T07:07:38.272Z,-7.00
2018-02-21T07:10:06.131Z,-6.90
2018-02-21T07:12:33.944Z,-6.80
2018-02-21T07:15:01.778Z,-6.70
2018-02-21T07:17:29.600Z,-6.50
2018-02-21T07:19:57.483Z,-6.30
2018-02-21T07:22:25.222Z,-6.10
2018-02-21T07:24:52.948Z,-5.90
2018-02-21T07:27:21.536Z,-5.50
2018-02-21T07:29:49.291Z,-5.60
2018-02-21T07:32:18.700Z,-5.20
2018-02-21T07:34:46.692Z,-5.20
2018-02-21T07:37:14.464Z,-5.00
2018-02-21T07:39:43.077Z,-5.10
2018-02-21T07:42:11.880Z,-5.10
2018-02-21T07:44:39.608Z,-5.00
2018-02-21T07:47:07.438Z,-4.80
2018-02-21T07:49:36.082Z,-4.30
2018-02-21T07:52:03.890Z,-4.40
2018-02-21T07:54:31.659Z,-4.20
2018-02-21T07:57:00.220Z,-3.80
2018-02-21T07:59:29.944Z,-3.70
2018-02-21T08:01:58.455Z,-3.50
2018-02-21T08:04:26.223Z,-3.60
2018-02-21T08:06:54.085Z,-3.40
2018-02-21T08:09:21.907Z,-3.20
2018-02-21T08:11:49.827Z,-3.00
2018-02-21T08:14:17.775Z,-2.90
2018-02-21T08:16:45.623Z,-2.80
2018-02-21T08:19:14.227Z,-2.60
2018-02-21T08:21:53.932Z,-2.50
2018-02-21T08:24:21.796Z,-2.40
2018-02-21T08:26:49.895Z,-2.30
2018-02-21T08:29:17.864Z,-2.10
2018-02-21T08:31:45.706Z,-1.90
2018-02-21T08:34:13.530Z,-1.60
2018-02-21T08:36:42.307Z,-1.30
2018-02-21T08:39:10.138Z,-0.60
2018-02-21T08:41:38.790Z,0.90
2018-02-21T08:44:07.750Z,0.90
2018-02-21T08:46:36.500Z,1.40
2018-02-21T08:49:05.056Z,2.30
2018-02-21T08:51:33.845Z,2.30
2018-02-21T08:54:03.470Z,2.90
2018-02-21T08:56:31.554Z,2.90
2018-02-21T08:59:00.544Z,4.60
2018-02-21T09:01:28.793Z,4.60
2018-02-21T09:03:57.613Z,6.10
2018-02-21T09:06:28.442Z,7.40
2018-02-21T09:08:57.210Z,7.50
2018-02-21T09:11:30.019Z,8.60
2018-02-21T09:14:07.430Z,9.30
2018-02-21T09:16:35.670Z,10.30
2018-02-21T09:19:03.368Z,10.60
2018-02-21T09:21:31.128Z,10.20
2018-02-21T09:23:58.838Z,10.00
2018-02-21T09:26:26.437Z,10.10
2018-02-21T09:28:54.095Z,9.60
2018-02-21T09:31:22.539Z,10.00
2018-02-21T09:33:50.426Z,10.00
2018-02-21T09:36:18.818Z,11.00
2018-02-21T09:38:46.480Z,10.80
2018-02-21T09:41:14.129Z,10.40
2018-02-21T09:43:42.528Z,11.70
2018-02-21T09:46:10.133Z,11.60
2018-02-21T09:48:37.788Z,11.60
2018-02-21T09:51:05.363Z,11.10
2018-02-21T09:53:33.025Z,10.50
2018-02-21T09:56:00.701Z,10.10
2018-02-21T09:58:29.123Z,11.10
2018-02-21T10:00:56.886Z,11.10
2018-02-21T10:03:24.492Z,11.50
2018-02-21T10:05:52.169Z,10.90
2018-02-21T10:08:20.570Z,11.50
2018-02-21T10:10:48.207Z,11.50
2018-02-21T10:13:15.792Z,11.50
2018-02-21T10:15:43.441Z,11.60
2018-02-21T10:18:11.066Z,12.00
2018-02-21T10:20:38.701Z,12.50
2018-02-21T10:23:06.339Z,11.80
2018-02-21T10:25:33.983Z,12.90
2018-02-21T10:28:01.657Z,13.20
2018-02-21T10:30:29.328Z,12.50
2018-02-21T10:32:57.098Z,12.40
2018-02-21T10:35:24.752Z,13.40
2018-02-21T10:37:52.426Z,14.40
2018-02-21T10:40:20.059Z,14.90
2018-02-21T10:42:47.710Z,14.60
2018-02-21T10:45:16.165Z,14.30
2018-02-21T10:47:43.831Z,14.30
2018-02-21T10:50:11.415Z,14.50
2018-02-21T10:52:39.053Z,14.70
2018-02-21T10:55:06.743Z,15.00
2018-02-21T10:57:34.424Z,13.80
2018-02-21T11:00:02.109Z,15.20
2018-02-21T11:02:29.744Z,14.70
2018-02-21T11:04:57.357Z,15.50
2018-02-21T11:07:24.997Z,16.10
2018-02-21T11:09:52.560Z,16.10
2018-02-21T11:12:20.178Z,16.90
2018-02-21T11:14:47.779Z,16.10
2018-02-21T11:17:15.421Z,16.50
2018-02-21T11:19:43.031Z,16.80
2018-02-21T11:22:11.463Z,16.90
2018-02-21T11:24:39.088Z,16.80
2018-02-21T11:27:08.317Z,16.70
2018-02-21T11:29:35.962Z,16.00
2018-02-21T11:32:03.617Z,15.70
2018-02-21T11:34:31.317Z,16.40
2018-02-21T11:36:58.966Z,16.50
2018-02-21T11:39:26.568Z,17.60
2018-02-21T11:41:54.954Z,16.50
2018-02-21T11:44:23.390Z,16.40
2018-02-21T11:46:50.997Z,16.40
2018-02-21T11:49:18.671Z,17.90
2018-02-21T11:51:46.333Z,18.10
2018-02-21T11:54:13.958Z,17.00
2018-02-21T11:56:42.338Z,18.60
2018-02-21T11:59:10.731Z,18.80
2018-02-21T12:01:39.135Z,17.70
2018-02-21T12:04:06.750Z,17.70
2018-02-21T12:06:34.420Z,19.20
2018-02-21T12:09:02.864Z,16.90
2018-02-21T12:11:30.460Z,16.90
2018-02-21T12:13:58.098Z,16.40
2018-02-21T12:16:25.794Z,16.00
2018-02-21T12:18:54.193Z,14.60
2018-02-21T12:21:21.845Z,14.60
2018-02-21T12:23:49.509Z,14.40
2018-02-21T12:26:17.133Z,15.40
2018-02-21T12:28:44.790Z,15.40
2018-02-21T12:31:12.412Z,15.60
2018-02-21T12:33:40.042Z,16.10
2018-02-21T12:36:08.451Z,17.40
2018-02-21T12:38:36.103Z,17.40
2018-02-21T12:41:09.291Z,16.70
2018-02-21T12:43:36.934Z,15.60
2018-02-21T12:46:04.634Z,15.40
2018-02-21T12:48:32.281Z,15.40
2018-02-21T12:50:59.964Z,15.60
2018-02-21T12:53:27.959Z,16.30
2018-02-21T12:55:55.670Z,16.90
2018-02-21T12:58:23.622Z,16.00
2018-02-21T13:00:51.266Z,15.60
2018-02-21T13:03:19.607Z,16.50
2018-02-21T13:05:48.140Z,16.50
2018-02-21T13:08:15.768Z,15.80
2018-02-21T13:10:43.419Z,14.80
2018-02-21T13:13:11.048Z,15.00
2018-02-21T13:15:38.708Z,14.30
2018-02-21T13:18:06.389Z,13.80
2018-02-21T13:20:42.451Z,13.70
2018-02-21T13:23:13.139Z,14.90
2018-02-21T13:25:41.742Z,14.40
2018-02-21T13:28:10.172Z,15.50
2018-02-21T13:30:38.617Z,15.90
2018-02-21T13:33:06.269Z,15.90
2018-02-21T13:35:34.822Z,17.30
2018-02-21T13:38:03.397Z,17.30
2018-02-21T13:40:31.843Z,15.50
2018-02-21T13:42:59.500Z,15.50
2018-02-21T13:45:28.207Z,14.30
2018-02-21T13:47:55.878Z,14.20
2018-02-21T13:50:23.556Z,13.70
2018-02-21T13:52:51.297Z,13.70
2018-02-21T13:55:19.019Z,14.30
2018-02-21T13:57:46.744Z,14.00
2018-02-21T14:00:14.487Z,13.50
2018-02-21T14:02:42.168Z,12.00
2018-02-21T14:05:09.831Z,9.70
2018-02-21T14:07:37.482Z,8.60
2018-02-21T14:10:05.137Z,7.80
2018-02-21T14:12:32.725Z,7.20
2018-02-21T14:15:00.345Z,7.00
2018-02-21T14:17:28.112Z,6.70
2018-02-21T14:19:55.786Z,6.70
2018-02-21T14:22:23.401Z,7.20
2018-02-21T14:24:51.033Z,7.50
2018-02-21T14:27:18.715Z,7.00
2018-02-21T14:29:46.392Z,6.70
2018-02-21T14:32:14.016Z,6.20
2018-02-21T14:34:41.660Z,6.80
2018-02-21T14:37:09.356Z,7.30
2018-02-21T14:39:37.062Z,7.10
2018-02-21T14:42:05.484Z,6.40
2018-02-21T14:44:33.292Z,6.30
2018-02-21T14:47:02.042Z,5.60
2018-02-21T14:49:29.744Z,5.30
2018-02-21T14:51:57.371Z,5.10
2018-02-21T14:54:25.735Z,4.90
2018-02-21T14:56:53.463Z,4.60
2018-02-21T14:59:21.077Z,4.30
2018-02-21T15:01:48.746Z,4.20
2018-02-21T15:04:16.983Z,4.10
2018-02-21T15:06:44.612Z,4.10
2018-02-21T15:09:13.091Z,4.00
2018-02-21T15:11:42.456Z,4.10
2018-02-21T15:14:11.235Z,4.10
2018-02-21T15:16:38.924Z,4.20
2018-02-21T15:19:06.574Z,4.10
2018-02-21T15:21:34.285Z,3.90
2018-02-21T15:24:02.006Z,3.90
2018-02-21T15:26:30.449Z,4.00
2018-02-21T15:28:58.097Z,3.90
2018-02-21T15:31:25.848Z,3.80
2018-02-21T15:33:53.474Z,3.60
2018-02-21T15:36:21.211Z,3.30
2018-02-21T15:38:48.933Z,3.30
2018-02-21T15:41:16.619Z,3.10
2018-02-21T15:43:44.313Z,3.00
2018-02-21T15:46:12.022Z,2.90
2018-02-21T15:48:39.815Z,2.80
2018-02-21T15:51:07.543Z,2.70
2018-02-21T15:53:35.355Z,2.70
2018-02-21T15:56:03.023Z,2.50
2018-02-21T15:58:30.687Z,2.40
2018-02-21T16:00:58.343Z,2.30
2018-02-21T16:03:25.983Z,2.20
2018-02-21T16:05:53.654Z,2.00
2018-02-21T16:08:21.362Z,1.90
2018-02-21T16:10:49.777Z,1.60
2018-02-21T16:13:17.445Z,1.60
2018-02-21T16:15:45.042Z,1.50
2018-02-21T16:18:12.694Z,1.30
2018-02-21T16:20:40.361Z,1.20
2018-02-21T16:23:08.750Z,1.00
2018-02-21T16:25:37.272Z,1.00
2018-02-21T16:28:05.700Z,0.80
2018-02-21T16:30:33.358Z,0.80
2018-02-21T16:33:01.048Z,0.70
2018-02-21T16:35:28.707Z,0.70
2018-02-21T16:37:57.171Z,0.50
2018-02-21T16:40:25.543Z,0.40
2018-02-21T16:42:53.952Z,0.20
2018-02-21T16:45:21.629Z,0.20
2018-02-21T16:47:49.281Z,0.10
2018-02-21T16:50:17.685Z,-0.10
2018-02-21T16:52:45.334Z,-0.10
2018-02-21T16:55:13.006Z,-0.10
2018-02-21T16:57:40.578Z,-0.20
2018-02-21T17:00:08.230Z,-0.30
2018-02-21T17:02:35.885Z,-0.40
2018-02-21T17:05:03.524Z,-0.50
2018-02-21T17:07:31.177Z,-0.50
2018-02-21T17:09:58.860Z,-0.60
2018-02-21T17:12:27.268Z,-0.70
2018-02-21T17:14:54.897Z,-0.70
2018-02-21T17:17:22.520Z,-0.80
2018-02-21T17:19:50.943Z,-0.90
2018-02-21T17:22:18.597Z,-0.90
2018-02-21T17:24:46.299Z,-0.90
2018-02-21T17:27:13.966Z,-1.00
2018-02-21T17:29:42.325Z,-1.00
2018-02-21T17:32:09.951Z,-1.00
2018-02-21T17:34:37.548Z,-1.00
2018-02-21T17:37:06.469Z,-1.10
2018-02-21T17:39:34.889Z,-1.10
2018-02-21T17:42:02.528Z,-1.10
2018-02-21T17:44:30.959Z,-1.10
2018-02-21T17:46:58.607Z,-1.10
2018-02-21T17:49:26.244Z,-1.10
2018-02-21T17:51:53.896Z,-1.00
2018-02-21T17:54:21.505Z,-1.00
2018-02-21T17:56:49.229Z,-1.00
2018-02-21T17:59:16.857Z,-1.00
2018-02-21T18:01:44.465Z,-0.90
2018-02-21T18:04:12.088Z,-0.90
2018-02-21T18:06:39.761Z,-0.90
2018-02-21T18:09:07.382Z,-0.90
2018-02-21T18:11:35.035Z,-0.80
2018-02-21T18:14:03.457Z,-0.80
2018-02-21T18:16:31.128Z,-0.80
2018-02-21T18:18:58.767Z,-0.80
2018-02-21T18:21:32.732Z,-0.70
2018-02-21T18:24:00.378Z,-0.70
2018-02-21T18:26:27.962Z,-0.70
2018-02-21T18:28:55.624Z,-0.70
2018-02-21T18:31:23.233Z,-0.60
2018-02-21T18:33:50.931Z,-0.60
2018-02-21T18:36:18.640Z,-0.60
2018-02-21T18:38:46.254Z,-0.60
2018-02-21T18:41:13.863Z,-0.60
2018-02-21T18:43:42.324Z,-0.50
2018-02-21T18:46:10.685Z,-0.50
2018-02-21T18:48:38.323Z,-0.50
2018-02-21T18:51:05.918Z,-0.40
2018-02-21T18:53:33.609Z,-0.40
2018-02-21T18:56:01.248Z,-0.40
2018-02-21T18:58:29.659Z,-0.40
2018-02-21T19:00:57.308Z,-0.40
2018-02-21T19:03:24.960Z,-0.50
2018-02-21T19:05:53.364Z,-0.50
2018-02-21T19:08:20.994Z,-0.50
2018-02-21T19:10:49.393Z,-0.50
2018-02-21T19:13:17.009Z,-0.60
2018-02-21T19:15:44.698Z,-0.60
2018-02-21T19:18:13.098Z,-0.60
2018-02-21T19:20:40.812Z,-0.70
2018-02-21T19:23:08.390Z,-0.60
2018-02-21T19:25:36.777Z,-0.50
2018-02-21T19:28:05.163Z,-0.60
2018-02-21T19:30:32.849Z,-0.60
2018-02-21T19:33:01.069Z,-0.60
2018-02-21T19:35:28.730Z,-0.60
2018-02-21T19:37:56.335Z,-0.60
2018-02-21T19:40:23.964Z,-0.60
2018-02-21T19:42:51.593Z,-0.60
2018-02-21T19:45:19.267Z,-0.60
2018-02-21T19:47:46.873Z,-0.60
2018-02-21T19:50:20.173Z,-0.60
2018-02-21T19:52:47.826Z,-0.70
2018-02-21T19:55:15.466Z,-0.70
2018-02-21T19:57:43.846Z,-0.80
2018-02-21T20:00:11.430Z,-0.80
2018-02-21T20:02:39.060Z,-0.80
2018-02-21T20:05:07.442Z,-0.90
2018-02-21T20:07:35.903Z,-0.90
2018-02-21T20:10:03.632Z,-0.90
2018-02-21T20:12:31.328Z,-1.00
2018-02-21T20:14:59.768Z,-1.00
2018-02-21T20:17:27.421Z,-1.00
2018-02-21T20:19:55.025Z,-1.00
2018-02-21T20:22:22.692Z,-1.00
2018-02-21T20:24:50.283Z,-1.10
2018-02-21T20:27:17.916Z,-1.10
2018-02-21T20:29:46.285Z,-1.10
2018-02-21T20:32:13.917Z,-1.10
2018-02-21T20:34:41.531Z,-1.10
2018-02-21T20:37:09.924Z,-1.10
2018-02-21T20:39:37.522Z,-1.10
2018-02-21T20:42:05.188Z,-1.10
2018-02-21T20:44:32.819Z,-1.10
2018-02-21T20:47:00.429Z,-1.20
2018-02-21T20:49:28.083Z,-1.20
2018-02-21T20:51:55.653Z,-1.10
2018-02-21T20:54:23.317Z,-1.20
2018-02-21T20:56:50.984Z,-1.20
2018-02-21T20:59:18.599Z,-1.30
2018-02-21T21:01:46.248Z,-1.20
2018-02-21T21:04:13.913Z,-1.10
2018-02-21T21:06:41.590Z,-1.10
2018-02-21T21:09:09.225Z,-1.10
2018-02-21T21:11:36.820Z,-1.20
2018-02-21T21:14:04.506Z,-1.30
2018-02-21T21:16:32.921Z,-1.40
2018-02-21T21:19:00.629Z,-1.40
2018-02-21T21:21:28.267Z,-1.40
2018-02-21T21:23:55.906Z,-1.40
2018-02-21T21:26:23.549Z,-1.50
2018-02-21T21:28:51.192Z,-1.50
2018-02-21T21:31:19.624Z,-1.60
2018-02-21T21:33:47.306Z,-1.60
2018-02-21T21:36:15.637Z,-1.70
2018-02-21T21:38:43.306Z,-1.80
2018-02-21T21:41:10.958Z,-1.80
2018-02-21T21:43:38.578Z,-1.90
2018-02-21T21:46:06.994Z,-2.00
2018-02-21T21:48:34.594Z,-2.00
2018-02-21T21:51:02.242Z,-2.00
2018-02-21T21:53:29.864Z,-2.10
2018-02-21T21:55:58.271Z,-2.20
2018-02-21T21:58:25.947Z,-2.20
2018-02-21T22:00:53.605Z,-2.30
2018-02-21T22:03:21.250Z,-2.30
2018-02-21T22:05:48.870Z,-2.40
2018-02-21T22:08:16.482Z,-2.50
2018-02-21T22:10:44.184Z,-2.50
2018-02-21T22:13:11.808Z,-2.60
2018-02-21T22:15:39.461Z,-2.60
2018-02-21T22:18:07.090Z,-2.60
2018-02-21T22:20:35.574Z,-2.70
2018-02-21T22:23:03.171Z,-2.70
2018-02-21T22:25:30.797Z,-2.70
2018-02-21T22:27:58.436Z,-2.80
2018-02-21T22:30:26.844Z,-2.80
2018-02-21T22:32:55.326Z,-2.90
2018-02-21T22:35:23.568Z,-2.90
2018-02-21T22:37:51.959Z,-2.90
2018-02-21T22:40:19.666Z,-2.90
2018-02-21T22:42:47.338Z,-3.00
2018-02-21T22:45:14.961Z,-3.00
2018-02-21T22:47:42.650Z,-3.00
2018-02-21T22:50:10.313Z,-3.10
2018-02-21T22:52:38.011Z,-3.20
2018-02-21T22:55:06.458Z,-3.30
2018-02-21T22:57:34.077Z,-3.30
2018-02-21T23:00:01.839Z,-3.30
2018-02-21T23:02:30.469Z,-3.30
2018-02-21T23:04:58.978Z,-3.40
2018-02-21T23:07:27.450Z,-3.50
2018-02-21T23:09:56.710Z,-3.50
2018-02-21T23:12:24.399Z,-3.50
2018-02-21T23:14:56.341Z,-3.60
2018-02-21T23:17:24.847Z,-3.60
2018-02-21T23:19:53.246Z,-3.60
2018-02-21T23:22:22.254Z,-3.60
2018-02-21T23:24:49.951Z,-3.70
2018-02-21T23:27:17.626Z,-3.70
2018-02-21T23:29:45.301Z,-3.70
2018-02-21T23:32:12.937Z,-3.80
2018-02-21T23:34:41.252Z,-3.80
2018-02-21T23:37:08.947Z,-3.80
2018-02-21T23:39:36.578Z,-3.70
2018-02-21T23:42:05.011Z,-3.70
2018-02-21T23:44:32.700Z,-3.70
2018-02-21T23:47:01.148Z,-3.60
2018-02-21T23:49:28.842Z,-3.70
2018-02-21T23:51:56.447Z,-3.60
2018-02-21T23:54:25.058Z,-3.60
2018-02-21T23:56:52.734Z,-3.60
2018-02-21T23:59:20.411Z,-3.70
